St Georges - 8nm Nw Of Crescent City, Ca (46027) Wave Buoy

11:50pm - Mon 24th Oct 2016 All times are PDT. -7 hours from GMT.

  • Sig Wave height 16.1ft
  • Swell Direction
  • Peak Period 11s
  • Average Period 9s
  • Wind
    20mph, 25mph gusts
  • Sea Temp 57°f
  • Air Temp 58°f
  • Sea Pressure 1010.9mb
  • St Georges - 8nm Nw Of Crescent City, Ca
  • St Georges - 8nm Nw Of Crescent City, Ca

More Historic Weather Station data

Upgrade to MSW Pro to gain access to the past 30 days of data for over 8000 Wavebouys and Weather Stations around the globe.

Join Pro

Comparision Forecast

View Surf forecast
Mon 10/24 11:50pm 16ft 11s 9s 20 25 mph 1010.9mb 57f 58f
10:50pm 15.5ft 12s 9s 22 27 mph 1010.2mb 57f 59f
9:50pm 13.5ft 11s 8s 22 29 mph 1009.4mb 57f 58f
8:50pm 14.5ft 11s 8s 22 25 mph 1009mb 57f 59f
7:50pm 15ft 11s 8s 22 29 mph 1008.5mb 57f 58f
6:50pm 12ft 12s 8s 25 29 mph 1007.9mb 57f 58f
5:50pm 12.5ft 12s 8s 27 31 mph 1007.5mb 57f 58f
4:50pm 13ft 11s 8s 25 29 mph 1007.3mb 57f 56f
3:50pm 13ft 11s 8s 27 31 mph 1006.9mb 57f 57f
2:50pm 11.5ft 11s 7s 20 27 mph 1007mb 57f 54f
1:50pm 10.5ft 11s 7s 22 27 mph 1006.2mb 57f 57f
12:50pm 12ft 11s 8s 22 27 mph 1005.5mb 57f 57f
11:50am 11ft 11s 7s 22 27 mph 1005.7mb 57f 56f
10:50am 13ft 10s 8s 25 31 mph 1005.4mb 57f 56f
9:50am 12ft 10s 7s 29 36 mph 1004.8mb 57f 55f
8:50am 14ft 10s 7s 31 40 mph 1003.8mb 57f 58f
7:50am 14ft 10s 7s 31 43 mph 1002.5mb 57f 57f
6:50am 15ft 10s 7s 34 43 mph 1002.4mb 57f 58f
5:50am 12ft 9s 7s 31 38 mph 1001.3mb 57f 60f
4:50am 11.5ft 8s 7s 31 36 mph 1000.5mb 57f 62f
3:50am 10ft 8s 6s 29 36 mph 1001mb 57f 62f
2:50am 10ft 8s 6s 31 40 mph 1001.8mb 58f 62f
1:50am 9ft 8s 6s 31 40 mph 1002.7mb 58f 62f
12:50am 9ft 7s 6s 27 31 mph 1002.9mb 58f 61f
Sun 10/23 11:50pm 8ft 7s 6s 34 43 mph 1003.3mb 58f 62f
10:50pm 8ft 7s 6s 22 29 mph 1004.1mb 58f 61f
9:50pm 8ft 8s 6s 18 20 mph 1004.7mb 58f 59f
8:50pm 8.5ft 7s 6s 13 18 mph 1005.4mb 58f 59f
7:50pm 9ft 7s 6s 18 20 mph 1006.4mb 58f 59f
6:50pm 7.5ft 10s 6s 16 20 mph 1006.9mb 58f 59f
5:50pm 7.5ft 10s 7s 16 20 mph 1007mb 58f 59f
4:50pm 7ft 10s 7s 16 18 mph 1007.4mb 58f 59f
3:50pm 6.5ft 11s 7s 13 16 mph 1007.9mb 58f 58f
2:50pm 6.5ft 11s 8s 13 16 mph 1008.4mb 58f 59f
1:50pm 8ft 11s 9s 13 16 mph 1009mb 58f 59f
12:50pm 7ft 11s 8s 13 18 mph 1009.6mb 58f 58f
11:50am 8.5ft 11s 9s 13 18 mph 1010mb 57f 58f
10:50am 8ft 11s 8s 11 16 mph 1010.3mb 57f 57f
9:50am 8ft 12s 9s 11 13 mph 1010.8mb 57f 56f
8:50am 7.5ft 12s 8s 11 13 mph 1010.8mb 57f 55f
7:50am 9ft 12s 9s 9 11 mph 1010.8mb 57f 55f
6:50am 9ft 12s 9s 9 13 mph 1011mb 57f 56f
5:50am 9ft 13s 9s 9 11 mph 1011.2mb 57f 56f
4:50am 9ft 13s 8s 11 13 mph 1011.2mb 57f 56f
3:50am 8.5ft 13s 8s 9 13 mph 1011.5mb 58f 56f
2:50am 8ft 13s 8s 11 16 mph 1011.9mb 58f 58f
1:50am 8.5ft 13s 9s 7 9 mph 1012.2mb 58f 57f
12:50am 7ft 14s 8s 11 16 mph 1012.1mb 58f 58f
Sat 10/22 11:50pm 7.5ft 13s 8s 13 16 mph 1012.3mb 58f 58f
10:50pm 7.5ft 14s 9s 11 16 mph 1012.1mb 57f 58f
9:50pm 7.5ft 13s 9s 13 18 mph 1011.5mb 57f 58f
8:50pm 8.5ft 14s 9s 13 16 mph 1011.3mb 57f 58f
7:50pm 9ft 13s 10s 11 16 mph 1011.4mb 57f 58f
6:50pm 10ft 14s 10s 11 16 mph 1011.3mb 57f 57f
5:50pm 10ft 14s 10s 11 16 mph 1011.5mb 58f 57f
4:50pm 10ft 13s 10s 13 16 mph 1011.6mb 58f 57f
3:50pm 11ft 11s 10s 11 16 mph 1012mb 58f 56f
2:50pm 10ft 14s 10s 13 16 mph 1012.1mb 58f 56f
1:50pm 11ft 14s 10s 13 18 mph 1012.8mb 58f 56f
12:50pm 12ft 14s 11s 11 16 mph 1013.3mb 58f 56f
11:50am 11ft 14s 11s 9 11 mph 1013.3mb 58f 55f
10:50am 11ft 14s 11s 9 13 mph 1013.3mb 57f 54f
9:50am 11ft 14s 11s 9 11 mph 1012.9mb 57f 53f
8:50am 12ft 14s 11s 7 11 mph 1013.2mb 57f 54f
7:50am 11ft 15s 11s 4 9 mph 1013.3mb 57f 53f
6:50am 12.5ft 14s 11s 9 13 mph 1013.6mb 58f 53f
5:50am 12ft 13s 11s 7 13 mph 1014mb 58f 54f
4:50am 13ft 15s 11s 4 9 mph 1014.3mb 58f 54f
3:50am 15ft 15s 12s 7 9 mph 1014.5mb 58f 53f
2:50am 14.5ft 15s 12s 4 7 mph 1015.2mb 58f 55f
1:50am 14ft 14s 12s 4 7 mph 1015.6mb 58f 55f
12:50am 13ft 13s 11s 7 9 mph 1015.9mb 58f 55f
Fri 10/21 11:50pm 11ft 14s 11s 7
1016.5mb 58f 56f
10:50pm 12.5ft 14s 11s 7 11 mph 1016.2mb 58f 56f
9:50pm 9ft 12s 10s 2 4 mph 1016.1mb 58f 57f
8:50pm 8.5ft 12s 10s 2
1016.1mb 58f 57f
7:50pm 8ft 11s 9s 4 7 mph 1016.9mb 58f 57f
6:50pm 7ft 12s 9s 7
1016.7mb 58f 58f
5:50pm 7ft 13s 9s 9 11 mph 1017mb 58f 58f
4:50pm 7ft 11s 9s 9 11 mph 1016.8mb 58f 58f
3:50pm 6.5ft 12s 8s 11 13 mph 1016.7mb 58f 58f
2:50pm 7ft 11s 8s 9 11 mph 1016.5mb 58f 58f
1:50pm 7ft 11s 8s 4 7 mph 1016.9mb 58f 58f
12:50pm 7ft 11s 9s 2 4 mph 1017.5mb 58f 58f
11:50am 7ft 11s 8s 7
1017.6mb 58f 58f
10:50am 8.5ft 11s 9s 2 4 mph 1017.7mb 58f 58f
9:50am 9ft 11s 9s 7
1017.8mb 58f 58f
8:50am 8ft 10s 9s 7 9 mph 1017.7mb 58f 58f